Time;durP1;ratioP1;P1;durP2;ratioP2;P2;SDS_P1;SDS_P2;PMS_P1;PMS_P2;Temp;Humidity;BMP_temperature;BMP_pressure;BME280_temperature;BME280_humidity;BME280_pressure;Samples;Min_cycle;Max_cycle;Signal;HPM_P1;HPM_P2
2022/06/10 00:00:37;;;;;;;;;;;21.60;55.90;;;;;;5055894;28;19913;-71
2022/06/10 00:03:03;;;;;;;;;;;21.60;56.00;;;;;;5054707;28;19917;-72
2022/06/10 00:05:29;;;;;;;;;;;21.60;56.10;;;;;;5054674;28;20279;-72
2022/06/10 00:07:55;;;;;;;;;;;21.50;55.90;;;;;;5054767;28;20416;-71
2022/06/10 00:10:22;;;;;;;;;;;21.60;56.20;;;;;;5054286;28;19944;-71
2022/06/10 00:12:48;;;;;;;;;;;21.60;56.10;;;;;;5054569;28;19962;-72
2022/06/10 00:15:14;;;;;;;;;;;21.60;56.10;;;;;;5054420;28;19913;-70
2022/06/10 00:17:40;;;;;;;;;;;21.60;56.30;;;;;;5054592;28;20349;-70
2022/06/10 00:20:07;;;;;;;;;;;21.60;56.40;;;;;;5054129;28;19909;-71
2022/06/10 00:22:32;;;;;;;;;;;21.60;56.30;;;;;;5054517;28;19924;-69
2022/06/10 00:24:58;;;;;;;;;;;21.60;56.30;;;;;;5054367;28;19913;-69
2022/06/10 00:27:23;;;;;;;;;;;21.60;56.30;;;;;;5054391;28;20376;-68
2022/06/10 00:29:49;;;;;;;;;;;21.60;56.30;;;;;;5053736;28;20261;-68
2022/06/10 00:32:15;;;;;;;;;;;21.60;56.30;;;;;;5054238;28;19948;-68
2022/06/10 00:34:41;;;;;;;;;;;21.60;56.20;;;;;;5053936;28;19970;-69
2022/06/10 00:37:06;;;;;;;;;;;21.60;56.30;;;;;;5054264;28;19920;-69
2022/06/10 00:39:34;;;;;;;;;;;21.60;56.30;;;;;;5053820;28;20031;-70
2022/06/10 00:42:04;;;;;;;;;;;21.60;56.30;;;;;;5054067;28;19912;-70
2022/06/10 00:44:32;;;;;;;;;;;21.60;56.30;;;;;;5053939;28;20369;-69
2022/06/10 00:46:58;;;;;;;;;;;21.60;56.30;;;;;;5053997;28;19963;-69
2022/06/10 00:49:24;;;;;;;;;;;21.60;56.30;;;;;;5053557;28;19909;-69
2022/06/10 00:51:51;;;;;;;;;;;21.60;56.20;;;;;;5055127;28;19913;-69
2022/06/10 00:54:37;;;;;;;;;;;21.50;56.30;;;;;;5053767;28;19931;-68
2022/06/10 00:57:26;;;;;;;;;;;21.50;56.40;;;;;;5053927;28;19913;-68
2022/06/10 01:00:00;;;;;;;;;;;21.60;56.50;;;;;;5050429;28;20445;-70
2022/06/10 01:02:27;;;;;;;;;;;21.50;56.50;;;;;;5053705;28;20011;-68
2022/06/10 01:04:53;;;;;;;;;;;21.50;56.50;;;;;;5053490;28;19909;-69
2022/06/10 01:07:21;;;;;;;;;;;21.50;56.50;;;;;;5053356;28;20313;-68
2022/06/10 01:09:48;;;;;;;;;;;21.50;56.40;;;;;;5053142;28;20290;-70
2022/06/10 01:12:31;;;;;;;;;;;21.50;56.50;;;;;;5053428;28;19970;-69
2022/06/10 01:14:57;;;;;;;;;;;21.60;56.50;;;;;;5053418;28;19952;-71
2022/06/10 01:17:22;;;;;;;;;;;21.60;56.70;;;;;;5053478;28;19952;-71
2022/06/10 01:19:51;;;;;;;;;;;21.60;56.90;;;;;;5052945;28;20015;-70
2022/06/10 01:22:37;;;;;;;;;;;21.60;56.90;;;;;;5053349;28;19915;-70
2022/06/10 01:25:02;;;;;;;;;;;21.60;56.90;;;;;;5052738;28;19916;-71
2022/06/10 01:27:49;;;;;;;;;;;21.60;57.00;;;;;;5053169;28;20551;-71
2022/06/10 01:30:15;;;;;;;;;;;21.50;57.00;;;;;;5052713;28;19923;-71
2022/06/10 01:33:00;;;;;;;;;;;21.50;57.10;;;;;;5053030;28;19912;-71
2022/06/10 01:35:39;;;;;;;;;;;21.50;57.00;;;;;;5052813;28;20377;-71
2022/06/10 01:38:09;;;;;;;;;;;21.50;57.00;;;;;;5053018;28;19956;-71
2022/06/10 01:40:58;;;;;;;;;;;21.50;57.00;;;;;;5052544;28;19913;-68
2022/06/10 01:43:26;;;;;;;;;;;21.50;57.10;;;;;;5049844;28;20404;-68
2022/06/10 01:45:56;;;;;;;;;;;21.50;57.00;;;;;;5052795;28;20023;-69
2022/06/10 01:48:28;;;;;;;;;;;21.50;56.90;;;;;;5052597;28;19915;-70
2022/06/10 01:51:16;;;;;;;;;;;21.50;57.00;;;;;;5052616;28;19913;-69
2022/06/10 01:53:50;;;;;;;;;;;21.40;53.80;;;;;;5053849;28;19915;-70
2022/06/10 01:56:26;;;;;;;;;;;21.20;53.00;;;;;;5052745;28;19915;-69
2022/06/10 01:58:56;;;;;;;;;;;21.10;52.40;;;;;;5052313;28;19963;-69
2022/06/10 02:01:28;;;;;;;;;;;20.90;52.40;;;;;;5052575;28;19935;-70
2022/06/10 02:04:05;;;;;;;;;;;20.80;52.20;;;;;;5052538;28;19912;-70
2022/06/10 02:06:34;;;;;;;;;;;20.80;52.00;;;;;;5052394;28;19909;-70
2022/06/10 02:09:01;;;;;;;;;;;20.70;51.60;;;;;;5052083;28;19951;-70
2022/06/10 02:11:28;;;;;;;;;;;20.60;51.40;;;;;;5052335;28;20423;-70
2022/06/10 02:13:58;;;;;;;;;;;20.50;51.30;;;;;;5052279;28;20396;-70
2022/06/10 02:16:30;;;;;;;;;;;20.50;51.10;;;;;;5052325;28;19909;-70
2022/06/10 02:19:01;;;;;;;;;;;20.40;51.20;;;;;;5051411;28;20245;-70
2022/06/10 02:21:30;;;;;;;;;;;20.40;51.20;;;;;;5052292;28;19909;-70
2022/06/10 02:23:58;;;;;;;;;;;20.30;51.10;;;;;;5052255;28;20023;-70
2022/06/10 02:26:26;;;;;;;;;;;20.30;51.20;;;;;;5052135;28;19909;-70
2022/06/10 02:28:53;;;;;;;;;;;20.20;51.20;;;;;;5051869;28;19915;-70
2022/06/10 02:31:21;;;;;;;;;;;20.20;51.20;;;;;;5051911;28;19954;-71
2022/06/10 02:33:50;;;;;;;;;;;20.10;51.40;;;;;;5052082;28;20000;-70
2022/06/10 02:36:48;;;;;;;;;;;20.00;51.10;;;;;;5051983;28;19905;-70
2022/06/10 02:39:17;;;;;;;;;;;20.00;51.10;;;;;;5040110;28;19948;-70
2022/06/10 02:41:47;;;;;;;;;;;20.00;51.20;;;;;;5052095;28;20003;-70
2022/06/10 02:44:31;;;;;;;;;;;19.90;51.50;;;;;;5051684;28;19916;-70
2022/06/10 02:47:10;;;;;;;;;;;19.90;51.10;;;;;;5051758;28;19948;-70
2022/06/10 02:49:36;;;;;;;;;;;19.80;51.30;;;;;;5051450;28;20305;-70
2022/06/10 02:52:02;;;;;;;;;;;19.80;51.20;;;;;;5051863;28;19927;-70
2022/06/10 02:54:30;;;;;;;;;;;19.70;51.30;;;;;;5051771;28;19912;-70
2022/06/10 02:56:56;;;;;;;;;;;19.70;51.50;;;;;;5051737;28;19909;-70
2022/06/10 03:02:33;;;;;;;;;;;19.70;51.30;;;;;;5053276;28;20008;-70
2022/06/10 03:05:04;;;;;;;;;;;19.70;51.40;;;;;;5051726;28;19913;-70
2022/06/10 03:07:30;;;;;;;;;;;19.60;51.30;;;;;;5051865;28;19915;-69
2022/06/10 03:09:58;;;;;;;;;;;19.60;51.30;;;;;;5051534;28;19999;-70
2022/06/10 03:12:23;;;;;;;;;;;19.50;51.50;;;;;;5051821;28;19913;-70
2022/06/10 03:15:08;;;;;;;;;;;19.50;51.30;;;;;;5051637;28;19915;-70
2022/06/10 03:17:33;;;;;;;;;;;19.50;51.70;;;;;;5051803;28;19932;-70
2022/06/10 03:20:13;;;;;;;;;;;19.50;52.00;;;;;;5051329;28;20288;-67
2022/06/10 03:22:41;;;;;;;;;;;19.50;51.40;;;;;;5051667;28;19916;-68
2022/06/10 03:25:07;;;;;;;;;;;19.50;51.40;;;;;;5051613;28;19915;-67
2022/06/10 03:27:32;;;;;;;;;;;19.40;51.40;;;;;;5051652;28;20703;-67
2022/06/10 03:30:01;;;;;;;;;;;19.40;51.20;;;;;;5052321;28;19913;-67
2022/06/10 03:32:42;;;;;;;;;;;19.30;51.40;;;;;;5055317;28;19913;-68
2022/06/10 03:35:08;;;;;;;;;;;19.30;51.40;;;;;;5055184;28;20257;-69
2022/06/10 03:37:35;;;;;;;;;;;19.30;51.30;;;;;;5055328;28;19913;-69
2022/06/10 03:40:01;;;;;;;;;;;19.20;51.40;;;;;;5054991;28;20419;-69
2022/06/10 03:42:27;;;;;;;;;;;19.20;51.40;;;;;;5055377;28;19917;-69
2022/06/10 03:44:54;;;;;;;;;;;19.20;51.50;;;;;;5055092;28;19955;-69
2022/06/10 03:47:23;;;;;;;;;;;19.20;51.40;;;;;;5055239;28;19909;-69
2022/06/10 03:49:54;;;;;;;;;;;19.20;51.40;;;;;;5054829;28;19909;-69
2022/06/10 03:52:22;;;;;;;;;;;19.20;51.60;;;;;;5055038;28;19920;-69
2022/06/10 03:54:47;;;;;;;;;;;19.20;51.40;;;;;;5054907;28;20289;-69
2022/06/10 03:57:14;;;;;;;;;;;19.20;51.50;;;;;;5054946;28;20395;-69
2022/06/10 03:59:39;;;;;;;;;;;19.10;51.50;;;;;;5054520;28;19912;-67
2022/06/10 04:02:05;;;;;;;;;;;19.10;51.60;;;;;;5055005;28;20296;-69
2022/06/10 04:04:30;;;;;;;;;;;19.10;51.60;;;;;;5054746;28;20042;-69
2022/06/10 04:06:56;;;;;;;;;;;19.10;51.60;;;;;;5054730;28;19999;-69
2022/06/10 04:09:21;;;;;;;;;;;19.00;51.50;;;;;;5054247;28;19955;-69
2022/06/10 04:11:47;;;;;;;;;;;19.10;51.60;;;;;;5054603;28;19917;-69
2022/06/10 04:14:12;;;;;;;;;;;19.10;51.60;;;;;;5054395;28;20694;-69
2022/06/10 04:16:38;;;;;;;;;;;19.10;51.60;;;;;;5054540;28;19909;-67
2022/06/10 04:19:03;;;;;;;;;;;19.10;51.60;;;;;;5054310;28;19909;-67
2022/06/10 04:21:29;;;;;;;;;;;19.00;51.60;;;;;;5054611;28;19919;-67
2022/06/10 04:23:54;;;;;;;;;;;19.10;51.70;;;;;;5054388;28;19915;-68
2022/06/10 04:26:20;;;;;;;;;;;19.00;52.10;;;;;;5054364;28;19908;-68
2022/06/10 04:28:46;;;;;;;;;;;19.10;51.80;;;;;;5054135;28;20357;-68
2022/06/10 04:31:11;;;;;;;;;;;19.10;51.50;;;;;;5054034;28;19917;-69
2022/06/10 04:33:37;;;;;;;;;;;19.10;51.90;;;;;;5054208;28;19916;-68
2022/06/10 04:36:03;;;;;;;;;;;19.10;51.90;;;;;;5054261;28;20004;-69
2022/06/10 04:38:28;;;;;;;;;;;19.10;51.70;;;;;;5053983;28;19916;-69
2022/06/10 04:40:54;;;;;;;;;;;19.20;51.90;;;;;;5053555;28;20338;-68
2022/06/10 04:43:20;;;;;;;;;;;19.20;52.10;;;;;;5053927;28;19916;-68
2022/06/10 04:45:50;;;;;;;;;;;19.20;52.10;;;;;;5053964;28;20003;-65
2022/06/10 04:48:16;;;;;;;;;;;19.30;52.00;;;;;;5054004;28;19909;-66
2022/06/10 04:50:42;;;;;;;;;;;19.40;52.00;;;;;;5053483;28;19962;-68
2022/06/10 04:53:08;;;;;;;;;;;19.40;51.70;;;;;;5053866;28;19913;-70
2022/06/10 04:55:34;;;;;;;;;;;19.50;51.80;;;;;;5055164;28;20358;-69
2022/06/10 04:57:59;;;;;;;;;;;19.50;51.60;;;;;;5053802;28;20035;-69
2022/06/10 05:00:31;;;;;;;;;;;19.60;51.60;;;;;;5053379;28;19962;-67
2022/06/10 05:02:56;;;;;;;;;;;19.70;51.50;;;;;;5053694;28;20427;-67
2022/06/10 05:05:22;;;;;;;;;;;19.80;52.00;;;;;;5053465;28;19909;-68
2022/06/10 05:07:48;;;;;;;;;;;19.90;51.30;;;;;;5053592;28;19916;-69
2022/06/10 05:10:14;;;;;;;;;;;19.90;51.30;;;;;;5053157;28;19930;-68
2022/06/10 05:12:40;;;;;;;;;;;20.00;51.30;;;;;;5054789;28;19920;-68
2022/06/10 05:15:06;;;;;;;;;;;20.00;51.00;;;;;;5053359;28;19909;-68
2022/06/10 05:17:32;;;;;;;;;;;20.10;51.00;;;;;;5054597;28;19955;-68
2022/06/10 05:19:57;;;;;;;;;;;20.20;50.80;;;;;;5052928;28;19940;-68
2022/06/10 05:22:23;;;;;;;;;;;20.30;50.90;;;;;;5053282;28;20463;-68
2022/06/10 05:24:48;;;;;;;;;;;20.40;50.90;;;;;;5053212;28;19909;-68
2022/06/10 05:27:14;;;;;;;;;;;20.50;50.40;;;;;;5053195;28;19909;-68
2022/06/10 05:29:39;;;;;;;;;;;20.60;50.30;;;;;;5052627;28;20361;-68
2022/06/10 05:32:05;;;;;;;;;;;20.60;50.30;;;;;;5053136;28;20370;-68
2022/06/10 05:34:46;;;;;;;;;;;20.80;50.20;;;;;;5052963;28;19927;-69
2022/06/10 05:37:13;;;;;;;;;;;20.90;49.80;;;;;;5053037;28;20284;-68
2022/06/10 05:39:39;;;;;;;;;;;20.60;50.00;;;;;;5052676;28;20375;-68
2022/06/10 05:42:05;;;;;;;;;;;20.40;50.30;;;;;;5053030;28;19908;-69
2022/06/10 05:44:34;;;;;;;;;;;20.40;49.90;;;;;;5052764;28;20030;-68
2022/06/10 05:47:03;;;;;;;;;;;20.00;50.20;;;;;;5052690;28;19963;-70
2022/06/10 05:49:29;;;;;;;;;;;20.10;50.10;;;;;;5052480;28;19908;-70
2022/06/10 05:51:55;;;;;;;;;;;;;;;;;;5052284;28;20007;-68
2022/06/10 05:54:21;;;;;;;;;;;20.50;56.80;;;;;;5052308;28;19916;-70
2022/06/10 05:56:46;;;;;;;;;;;21.00;60.80;;;;;;5052670;28;19913;-70
2022/06/10 05:59:13;;;;;;;;;;;21.40;60.50;;;;;;5052055;28;20011;-69
2022/06/10 06:01:38;;;;;;;;;;;21.70;62.20;;;;;;5052390;28;20635;-70
2022/06/10 06:04:04;;;;;;;;;;;22.00;63.90;;;;;;5052338;28;19909;-69
2022/06/10 06:06:29;;;;;;;;;;;22.50;65.10;;;;;;5052239;28;19909;-68
2022/06/10 06:08:55;;;;;;;;;;;23.20;47.10;;;;;;5051923;28;19924;-68
2022/06/10 06:11:21;;;;;;;;;;;24.20;46.50;;;;;;5052288;28;19912;-70
2022/06/10 06:13:46;;;;;;;;;;;24.90;45.50;;;;;;5052327;28;20274;-70
2022/06/10 06:16:13;;;;;;;;;;;25.40;44.40;;;;;;5052322;28;19948;-68
2022/06/10 06:18:39;;;;;;;;;;;25.70;43.30;;;;;;5053319;28;19912;-69
2022/06/10 06:21:05;;;;;;;;;;;26.00;42.70;;;;;;5052125;28;19916;-70
2022/06/10 06:23:30;;;;;;;;;;;26.30;42.30;;;;;;5052086;28;19909;-69
2022/06/10 06:25:56;;;;;;;;;;;26.50;41.80;;;;;;5052147;28;19917;-70
2022/06/10 06:28:21;;;;;;;;;;;26.80;41.40;;;;;;5052035;28;19919;-68
2022/06/10 06:30:47;;;;;;;;;;;27.00;40.90;;;;;;5051835;28;20325;-69
2022/06/10 06:33:12;;;;;;;;;;;27.10;40.30;;;;;;5052123;28;20381;-69
2022/06/10 06:35:39;;;;;;;;;;;27.20;40.40;;;;;;5051945;28;19999;-69
2022/06/10 06:38:05;;;;;;;;;;;27.20;40.20;;;;;;5051991;28;20388;-69
2022/06/10 06:40:30;;;;;;;;;;;27.30;40.40;;;;;;5051607;28;19908;-69
2022/06/10 06:42:56;;;;;;;;;;;27.40;40.80;;;;;;5052036;28;19908;-69
2022/06/10 06:45:23;;;;;;;;;;;27.40;40.60;;;;;;5051893;28;20297;-70
2022/06/10 06:47:49;;;;;;;;;;;27.50;40.50;;;;;;5053288;28;19948;-70
2022/06/10 06:50:16;;;;;;;;;;;27.50;40.60;;;;;;5051589;28;19988;-70
2022/06/10 06:52:42;;;;;;;;;;;27.50;40.40;;;;;;5051770;28;19921;-69
2022/06/10 06:55:08;;;;;;;;;;;27.50;40.10;;;;;;5051799;28;19915;-71
2022/06/10 06:57:33;;;;;;;;;;;27.50;40.40;;;;;;5051829;28;19916;-68
2022/06/10 07:00:06;;;;;;;;;;;27.50;40.10;;;;;;5051535;28;19908;-69
2022/06/10 07:02:36;;;;;;;;;;;27.70;39.80;;;;;;5051974;28;19999;-69
2022/06/10 07:05:02;;;;;;;;;;;28.00;39.40;;;;;;5054837;28;19909;-69
2022/06/10 07:07:28;;;;;;;;;;;28.30;38.90;;;;;;5055922;28;19979;-70
2022/06/10 07:09:53;;;;;;;;;;;28.40;38.50;;;;;;5055446;28;20365;-69
2022/06/10 07:12:19;;;;;;;;;;;28.60;38.20;;;;;;5055645;28;19916;-69
2022/06/10 07:14:44;;;;;;;;;;;28.70;37.90;;;;;;5055682;28;19912;-70
2022/06/10 07:17:11;;;;;;;;;;;28.70;37.80;;;;;;5055817;28;20334;-69
2022/06/10 07:19:37;;;;;;;;;;;28.70;37.80;;;;;;5055359;28;20254;-69
2022/06/10 07:22:04;;;;;;;;;;;28.70;37.70;;;;;;5055591;28;20324;-70
2022/06/10 07:24:29;;;;;;;;;;;28.70;37.50;;;;;;5056794;28;19913;-68
2022/06/10 07:26:55;;;;;;;;;;;28.90;37.40;;;;;;5055531;28;19938;-70
2022/06/10 07:29:21;;;;;;;;;;;29.00;37.20;;;;;;5055031;28;19912;-68
2022/06/10 07:31:46;;;;;;;;;;;29.30;37.00;;;;;;5055289;28;19982;-69
2022/06/10 07:34:12;;;;;;;;;;;29.40;36.80;;;;;;5055369;28;19908;-69
2022/06/10 07:36:40;;;;;;;;;;;29.50;36.80;;;;;;5055280;28;19909;-69
2022/06/10 07:39:06;;;;;;;;;;;29.60;36.60;;;;;;5054898;28;19913;-68
2022/06/10 07:44:20;;;;;;;;;;;29.80;36.50;;;;;;5056814;28;19916;-68
2022/06/10 07:46:49;;;;;;;;;;;29.90;36.70;;;;;;5055266;28;19908;-69
2022/06/10 07:49:14;;;;;;;;;;;29.80;36.50;;;;;;5054788;28;19913;-67
2022/06/10 07:51:40;;;;;;;;;;;29.70;37.20;;;;;;5054919;28;19920;-68
2022/06/10 07:54:06;;;;;;;;;;;29.50;37.60;;;;;;5054939;28;20003;-69
2022/06/10 07:56:31;;;;;;;;;;;29.30;37.80;;;;;;5051665;28;19909;-68
2022/06/10 07:58:58;;;;;;;;;;;29.00;38.40;;;;;;5053419;28;19913;-68
2022/06/10 08:01:28;;;;;;;;;;;28.70;38.80;;;;;;5053830;28;19908;-69
2022/06/10 08:03:54;;;;;;;;;;;28.50;39.10;;;;;;5053861;28;20708;-67
2022/06/10 08:06:21;;;;;;;;;;;28.30;39.50;;;;;;5053739;28;19913;-69
2022/06/10 08:08:47;;;;;;;;;;;28.20;39.80;;;;;;5053434;28;19916;-67
2022/06/10 08:11:13;;;;;;;;;;;28.10;40.10;;;;;;5053605;28;20323;-69
2022/06/10 08:13:38;;;;;;;;;;;28.00;40.10;;;;;;5041802;28;19947;-67
2022/06/10 08:16:04;;;;;;;;;;;28.00;40.20;;;;;;5058592;28;19948;-66
2022/06/10 08:18:31;;;;;;;;;;;28.10;40.00;;;;;;5070224;28;20351;-66
2022/06/10 08:23:42;;;;;;;;;;;28.30;39.60;;;;;;5073823;28;19954;-67
2022/06/10 08:26:08;;;;;;;;;;;28.50;39.40;;;;;;5066025;28;19916;-68
2022/06/10 08:28:35;;;;;;;;;;;28.80;39.10;;;;;;5032777;28;19909;-66
2022/06/10 08:31:01;;;;;;;;;;;28.80;38.80;;;;;;5040157;28;20377;-68
2022/06/10 08:33:26;;;;;;;;;;;28.80;38.70;;;;;;5059839;28;19923;-69
2022/06/10 08:35:52;;;;;;;;;;;28.80;38.70;;;;;;5073113;28;20288;-67
2022/06/10 08:38:18;;;;;;;;;;;28.80;38.50;;;;;;5073164;28;19912;-67
2022/06/10 08:40:44;;;;;;;;;;;28.90;38.40;;;;;;5072654;28;19908;-67
2022/06/10 08:43:29;;;;;;;;;;;28.90;38.40;;;;;;5073146;28;19920;-67
2022/06/10 08:45:54;;;;;;;;;;;28.90;38.60;;;;;;5034309;28;20027;-68
2022/06/10 08:48:26;;;;;;;;;;;28.70;38.50;;;;;;5031824;28;19974;-66
2022/06/10 08:50:56;;;;;;;;;;;28.50;38.90;;;;;;5033197;28;19916;-67
2022/06/10 08:53:36;;;;;;;;;;;28.40;39.10;;;;;;5032885;28;19936;-65
2022/06/10 08:56:03;;;;;;;;;;;28.40;39.30;;;;;;5032683;28;19916;-68
2022/06/10 08:58:32;;;;;;;;;;;28.20;39.60;;;;;;5032745;28;19913;-67
2022/06/10 09:01:00;;;;;;;;;;;28.10;39.80;;;;;;5033212;28;19910;-67
2022/06/10 09:03:35;;;;;;;;;;;28.10;40.00;;;;;;5032577;28;19909;-69
2022/06/10 09:06:02;;;;;;;;;;;28.00;40.10;;;;;;5055688;28;19913;-67
2022/06/10 09:08:35;;;;;;;;;;;28.00;40.30;;;;;;5052266;28;19916;-66
2022/06/10 09:11:04;;;;;;;;;;;27.60;40.30;;;;;;5053799;28;19962;-69
2022/06/10 09:13:38;;;;;;;;;;;27.60;41.10;;;;;;5052366;28;20369;-68
2022/06/10 09:16:16;;;;;;;;;;;27.70;40.70;;;;;;5053241;28;19909;-68
2022/06/10 09:18:44;;;;;;;;;;;27.60;40.90;;;;;;5046852;28;19966;-69
2022/06/10 09:21:20;;;;;;;;;;;27.70;42.00;;;;;;5032296;28;20391;-68
2022/06/10 09:23:46;;;;;;;;;;;27.60;41.10;;;;;;5061488;28;20272;-68
2022/06/10 09:26:35;;;;;;;;;;;27.70;41.20;;;;;;5060060;28;20383;-69
2022/06/10 09:29:00;;;;;;;;;;;27.70;41.30;;;;;;5035199;28;19908;-75
2022/06/10 09:31:40;;;;;;;;;;;27.70;41.00;;;;;;5051898;28;19917;-77
2022/06/10 09:34:05;;;;;;;;;;;27.80;41.00;;;;;;5052029;28;19924;-75
2022/06/10 09:36:39;;;;;;;;;;;27.80;40.80;;;;;;5051106;28;19909;-76
2022/06/10 09:40:35;;;;;;;;;;;27.80;40.70;;;;;;5051563;28;19913;-75
2022/06/10 09:42:12;;;;;;;;;;;27.70;40.30;;;;;;5053146;28;20458;-76
2022/06/10 09:44:51;;;;;;;;;;;27.60;40.20;;;;;;5051986;28;19916;-75
2022/06/10 09:47:35;;;;;;;;;;;27.40;39.40;;;;;;5046774;28;19913;-75
2022/06/10 09:50:13;;;;;;;;;;;27.10;39.60;;;;;;5043371;28;19909;-73
2022/06/10 09:52:42;;;;;;;;;;;27.00;41.40;;;;;;5049100;28;20328;-76
2022/06/10 09:55:10;;;;;;;;;;;26.90;41.90;;;;;;5051700;28;19963;-77
2022/06/10 09:57:59;;;;;;;;;;;26.90;42.40;;;;;;5047090;28;19913;-76
2022/06/10 10:00:32;;;;;;;;;;;26.70;42.50;;;;;;5038433;28;19909;-75
2022/06/10 10:02:58;;;;;;;;;;;26.70;43.10;;;;;;5051735;28;19920;-74
2022/06/10 10:05:30;;;;;;;;;;;26.50;43.20;;;;;;5051555;28;19913;-74
2022/06/10 10:07:58;;;;;;;;;;;26.50;43.30;;;;;;5050219;28;19921;-75
2022/06/10 10:10:24;;;;;;;;;;;26.40;42.60;;;;;;5051110;28;19912;-75
2022/06/10 10:13:11;;;;;;;;;;;26.20;41.80;;;;;;5050321;28;19971;-76
2022/06/10 10:15:36;;;;;;;;;;;26.10;41.60;;;;;;5043174;28;19913;-74
2022/06/10 10:18:08;;;;;;;;;;;26.00;41.80;;;;;;5048044;28;19920;-74
2022/06/10 10:20:52;;;;;;;;;;;26.00;42.10;;;;;;5051910;28;19909;-73
2022/06/10 10:23:30;;;;;;;;;;;25.80;42.00;;;;;;5052256;28;19908;-67
2022/06/10 10:25:56;;;;;;;;;;;25.80;42.50;;;;;;5051426;28;19952;-67
2022/06/10 10:28:30;;;;;;;;;;;25.70;43.00;;;;;;5053396;28;19916;-65
2022/06/10 10:30:59;;;;;;;;;;;25.70;42.60;;;;;;5051930;28;19928;-67
2022/06/10 10:33:25;;;;;;;;;;;25.60;40.90;;;;;;5050771;28;19917;-66
2022/06/10 10:35:52;;;;;;;;;;;25.50;41.40;;;;;;5051741;28;19909;-67
2022/06/10 10:38:33;;;;;;;;;;;25.50;42.00;;;;;;5051358;28;19909;-67
2022/06/10 10:40:58;;;;;;;;;;;25.50;42.10;;;;;;5050530;28;20281;-67
2022/06/10 10:43:24;;;;;;;;;;;25.40;42.80;;;;;;5046167;28;19935;-69
2022/06/10 10:46:06;;;;;;;;;;;25.40;42.40;;;;;;5051634;28;19912;-69
2022/06/10 10:48:34;;;;;;;;;;;25.40;42.20;;;;;;5051426;28;19967;-68
2022/06/10 10:51:03;;;;;;;;;;;25.30;42.00;;;;;;5051633;28;19909;-68
2022/06/10 10:53:38;;;;;;;;;;;25.20;42.60;;;;;;5051630;28;20007;-66
2022/06/10 10:56:04;;;;;;;;;;;25.20;43.10;;;;;;5051664;28;20373;-68
2022/06/10 10:58:32;;;;;;;;;;;25.10;43.10;;;;;;5051612;28;19916;-67
2022/06/10 11:00:59;;;;;;;;;;;25.10;43.50;;;;;;5048486;28;19913;-67
2022/06/10 11:03:30;;;;;;;;;;;25.10;43.50;;;;;;5052988;28;19966;-68
2022/06/10 11:05:57;;;;;;;;;;;25.10;43.80;;;;;;5051631;28;19912;-67
2022/06/10 11:08:22;;;;;;;;;;;25.10;43.80;;;;;;5049956;28;19924;-68
2022/06/10 11:11:03;;;;;;;;;;;25.10;43.50;;;;;;5041770;28;19916;-68
2022/06/10 11:13:35;;;;;;;;;;;25.00;42.30;;;;;;5045570;28;19924;-67
2022/06/10 11:16:19;;;;;;;;;;;25.00;42.80;;;;;;5049648;28;20305;-67
2022/06/10 11:18:46;;;;;;;;;;;24.90;42.80;;;;;;5040020;28;19909;-69
2022/06/10 11:21:12;;;;;;;;;;;24.80;42.80;;;;;;5051601;28;19909;-68
2022/06/10 11:23:48;;;;;;;;;;;24.70;43.30;;;;;;5051470;28;19916;-68
2022/06/10 11:26:17;;;;;;;;;;;24.70;43.50;;;;;;5051447;28;19944;-66
2022/06/10 11:28:44;;;;;;;;;;;24.60;43.80;;;;;;5051266;28;19913;-68
2022/06/10 11:31:20;;;;;;;;;;;24.60;42.40;;;;;;5042239;28;19928;-67
2022/06/10 11:33:46;;;;;;;;;;;24.60;43.50;;;;;;5035856;28;19966;-68
2022/06/10 11:36:13;;;;;;;;;;;24.60;43.90;;;;;;5051466;28;20384;-68
2022/06/10 11:38:51;;;;;;;;;;;24.60;44.10;;;;;;5051347;28;20254;-66
2022/06/10 11:41:19;;;;;;;;;;;24.60;44.30;;;;;;5051543;28;19962;-68
2022/06/10 11:43:47;;;;;;;;;;;24.60;43.90;;;;;;5064286;28;20522;-67
2022/06/10 11:46:16;;;;;;;;;;;24.60;44.20;;;;;;5071334;28;19913;-67
2022/06/10 11:48:48;;;;;;;;;;;24.50;44.40;;;;;;5071215;28;19913;-66
2022/06/10 11:51:17;;;;;;;;;;;24.50;44.50;;;;;;5055690;28;20384;-66
2022/06/10 11:54:02;;;;;;;;;;;24.60;44.60;;;;;;5041743;28;19970;-67
2022/06/10 12:02:00;;;;;;;;;;;24.60;44.60;;;;;;5056550;28;20355;-66
2022/06/10 12:04:30;;;;;;;;;;;24.50;44.60;;;;;;5054627;28;19908;-67
2022/06/10 12:06:59;;;;;;;;;;;24.50;44.20;;;;;;5051638;28;19909;-67
2022/06/10 12:09:28;;;;;;;;;;;24.50;44.60;;;;;;5053641;28;19909;-68
2022/06/10 12:11:53;;;;;;;;;;;24.50;44.70;;;;;;5054624;28;19919;-66
2022/06/10 12:14:31;;;;;;;;;;;24.50;44.80;;;;;;5054395;28;19999;-69
2022/06/10 12:17:00;;;;;;;;;;;24.50;44.70;;;;;;5054529;28;19915;-69
2022/06/10 12:19:38;;;;;;;;;;;24.60;44.60;;;;;;5054062;28;19909;-67
2022/06/10 12:22:04;;;;;;;;;;;24.60;44.80;;;;;;5055762;28;19995;-68
2022/06/10 12:24:30;;;;;;;;;;;24.50;44.90;;;;;;5053448;28;20423;-67
2022/06/10 12:27:03;;;;;;;;;;;24.40;45.10;;;;;;5055728;28;19909;-69
2022/06/10 12:29:38;;;;;;;;;;;24.40;44.80;;;;;;5061238;28;19939;-67
2022/06/10 12:32:07;;;;;;;;;;;24.50;44.80;;;;;;5074145;28;19917;-69
2022/06/10 12:34:45;;;;;;;;;;;24.50;45.00;;;;;;5073873;28;19986;-68
2022/06/10 12:37:15;;;;;;;;;;;24.50;44.90;;;;;;5074158;28;19995;-66
2022/06/10 12:39:47;;;;;;;;;;;24.50;45.00;;;;;;5073727;28;20267;-67
2022/06/10 12:42:17;;;;;;;;;;;24.40;45.10;;;;;;5064600;28;19908;-67
2022/06/10 12:44:47;;;;;;;;;;;24.30;45.20;;;;;;5053908;28;19944;-67
2022/06/10 12:47:14;;;;;;;;;;;24.30;45.20;;;;;;5073135;28;19913;-67
2022/06/10 12:49:44;;;;;;;;;;;24.30;44.80;;;;;;5073503;28;19913;-68
2022/06/10 12:52:13;;;;;;;;;;;24.20;44.30;;;;;;5073844;28;19924;-68
2022/06/10 12:54:44;;;;;;;;;;;24.20;44.80;;;;;;5073532;28;19908;-67
2022/06/10 12:57:23;;;;;;;;;;;24.20;45.10;;;;;;5073808;28;19909;-67
2022/06/10 12:59:49;;;;;;;;;;;24.20;44.60;;;;;;5047570;28;19960;-68
2022/06/10 13:02:42;;;;;;;;;;;24.10;44.90;;;;;;5033364;28;20354;-68
2022/06/10 13:05:16;;;;;;;;;;;24.10;45.00;;;;;;5033637;28;19913;-67
2022/06/10 13:07:43;;;;;;;;;;;24.10;44.80;;;;;;5042979;28;20345;-67
2022/06/10 13:10:27;;;;;;;;;;;24.10;45.30;;;;;;5053204;28;19986;-67
2022/06/10 13:12:54;;;;;;;;;;;24.10;45.10;;;;;;5053342;28;19912;-69
2022/06/10 13:15:24;;;;;;;;;;;24.10;45.20;;;;;;5051966;28;19966;-68
2022/06/10 13:17:51;;;;;;;;;;;24.10;44.70;;;;;;5033408;28;19948;-67
2022/06/10 13:20:18;;;;;;;;;;;24.10;44.70;;;;;;5033050;28;19947;-68
2022/06/10 13:22:44;;;;;;;;;;;24.20;45.20;;;;;;5064213;28;19915;-66
2022/06/10 13:25:10;;;;;;;;;;;24.10;45.20;;;;;;5073182;28;20392;-67
2022/06/10 13:27:40;;;;;;;;;;;24.10;45.20;;;;;;5073155;28;19913;-67
2022/06/10 13:30:06;;;;;;;;;;;24.20;45.20;;;;;;5072876;28;19951;-67
2022/06/10 13:32:31;;;;;;;;;;;24.10;44.10;;;;;;5069100;28;19940;-68
2022/06/10 13:34:58;;;;;;;;;;;24.10;42.70;;;;;;5032977;28;19909;-67
2022/06/10 13:37:26;;;;;;;;;;;24.10;43.60;;;;;;5033090;28;19913;-67
2022/06/10 13:39:53;;;;;;;;;;;24.10;42.70;;;;;;5033088;28;19955;-68
2022/06/10 13:42:26;;;;;;;;;;;24.10;42.50;;;;;;5034113;28;19909;-68
2022/06/10 13:44:52;;;;;;;;;;;24.10;42.80;;;;;;5032902;28;19913;-69
2022/06/10 13:47:17;;;;;;;;;;;24.10;43.60;;;;;;5032969;28;19909;-68
2022/06/10 13:50:52;;;;;;;;;;;24.10;43.20;;;;;;5033053;28;19959;-68
2022/06/10 13:52:41;;;;;;;;;;;24.10;42.60;;;;;;5038844;28;19920;-67
2022/06/10 13:55:19;;;;;;;;;;;24.20;43.10;;;;;;5033773;28;19916;-69
2022/06/10 13:57:45;;;;;;;;;;;24.10;41.90;;;;;;5042091;28;20368;-68
2022/06/10 14:00:19;;;;;;;;;;;24.10;42.50;;;;;;5052058;28;19915;-69
2022/06/10 14:02:45;;;;;;;;;;;24.10;44.10;;;;;;5049698;28;20346;-68
2022/06/10 14:05:16;;;;;;;;;;;24.10;44.50;;;;;;5032477;28;19936;-67
2022/06/10 14:07:42;;;;;;;;;;;24.10;44.60;;;;;;5044307;28;19959;-66
2022/06/10 14:10:16;;;;;;;;;;;24.10;44.70;;;;;;5045539;28;19917;-66
2022/06/10 14:12:51;;;;;;;;;;;24.20;44.70;;;;;;5032134;28;20258;-67
2022/06/10 14:15:17;;;;;;;;;;;24.20;44.30;;;;;;5031929;28;20005;-68
2022/06/10 14:17:50;;;;;;;;;;;24.10;44.60;;;;;;5032369;28;19995;-68
2022/06/10 14:20:16;;;;;;;;;;;24.10;44.60;;;;;;5032023;28;20370;-67
2022/06/10 14:22:44;;;;;;;;;;;24.10;44.70;;;;;;5032235;28;19917;-66
2022/06/10 14:25:13;;;;;;;;;;;24.00;44.80;;;;;;5032828;28;20350;-67
2022/06/10 14:27:40;;;;;;;;;;;23.90;44.50;;;;;;5032272;28;19916;-66
2022/06/10 14:30:13;;;;;;;;;;;23.90;44.50;;;;;;5031691;28;19917;-68
2022/06/10 14:32:40;;;;;;;;;;;23.90;44.30;;;;;;5047280;28;19960;-66
2022/06/10 14:35:31;;;;;;;;;;;23.90;45.20;;;;;;5051485;28;20046;-68
2022/06/10 14:38:01;;;;;;;;;;;23.90;44.70;;;;;;5052003;28;19963;-66
2022/06/10 14:40:27;;;;;;;;;;;23.90;45.00;;;;;;5049407;28;19963;-67
2022/06/10 14:43:04;;;;;;;;;;;23.90;44.70;;;;;;5033332;28;20313;-66
2022/06/10 14:45:32;;;;;;;;;;;23.90;45.00;;;;;;5031957;28;19913;-67